Terminal Aerodrome Forecast
Issued by NWS

Home | Current Version | Previous Version | Graphics & Text | Print | Product List | Glossary On
Versions: 1 2 3 4 5 6 7 8 9 10 11 12 13 14 15 16 17 18 19 20 21 22 23 24 25 26 27 28
000
FTUS43 KLOT 242053 AAB
TAFGYY
TAF AMD
KGYY 242053Z 2421/2518 33008KT 5SM BR OVC004
     FM242300 31006KT 4SM BR OVC003
     FM250100 25008KT 5SM BR OVC006
     FM250400 27013KT P6SM BKN009 OVC012
      TEMPO 2507/2509 3SM -RASN
     FM250900 29014G21KT 2SM -SN OVC015
     FM251400 30018G26KT P6SM -SN OVC020=

USA.gov is the U.S. government's official web portal to all federal, state and local government web resources and services.